createdAt,value
2023-04-20T00:01:21.409Z,100236.94
2023-04-20T00:03:49.510Z,100226.94
2023-04-20T00:06:18.201Z,100241.78
2023-04-20T00:08:47.516Z,100217.38
2023-04-20T00:11:15.787Z,100214.13
2023-04-20T00:13:43.484Z,100210.31
2023-04-20T00:16:11.221Z,100217.56
2023-04-20T00:18:39.151Z,100212.53
2023-04-20T00:21:06.980Z,100222.31
2023-04-20T00:23:34.820Z,100212.53
2023-04-20T00:26:02.535Z,100201.84
2023-04-20T00:28:30.406Z,100211.44
2023-04-20T00:30:59.844Z,100203.06
2023-04-20T00:33:27.561Z,100184.47
2023-04-20T00:35:56.783Z,100187.63
2023-04-20T00:38:24.720Z,100144.03
2023-04-20T00:40:54.399Z,100194.06
2023-04-20T00:43:23.242Z,100184.59
2023-04-20T00:45:55.014Z,100100.13
2023-04-20T00:48:23.736Z,100174.09
2023-04-20T00:50:54.149Z,100177.53
2023-04-20T00:53:28.532Z,100172.38
2023-04-20T00:55:57.109Z,100165.31
2023-04-20T00:58:25.129Z,100133.81
2023-04-20T01:00:52.884Z,100159.34
2023-04-20T01:03:21.084Z,100152.91
2023-04-20T01:05:51.891Z,100155.81
2023-04-20T01:08:26.655Z,100112.44
2023-04-20T01:10:56.502Z,100134.97
2023-04-20T01:13:24.807Z,100140.28
2023-04-20T01:15:52.559Z,100075.94
2023-04-20T01:18:20.246Z,100092.88
2023-04-20T01:20:51.918Z,100084.31
2023-04-20T01:23:22.358Z,100005.78
2023-04-20T01:25:50.214Z,100114.28
2023-04-20T01:28:18.174Z,100115.91
2023-04-20T01:30:46.395Z,100108.84
2023-04-20T01:33:14.254Z,100066.03
2023-04-20T01:35:51.617Z,100072.50
2023-04-20T01:38:24.213Z,100025.63
2023-04-20T01:41:01.058Z,100099.13
2023-04-20T01:43:35.606Z,100096.91
2023-04-20T01:46:08.966Z,100093.63
2023-04-20T01:48:40.121Z,100066.84
2023-04-20T01:51:09.819Z,100057.16
2023-04-20T01:53:37.535Z,100066.84
2023-04-20T01:56:05.577Z,100081.34
2023-04-20T01:58:33.621Z,100040.66
2023-04-20T02:01:02.897Z,100052.44
2023-04-20T02:03:31.130Z,100025.34
2023-04-20T02:05:59.337Z,100005.56
2023-04-20T02:08:30.851Z,99917.69
2023-04-20T02:10:58.845Z,100043.16
2023-04-20T02:13:27.234Z,100055.47
2023-04-20T02:15:55.808Z,100031.75
2023-04-20T02:18:24.600Z,100041.56
2023-04-20T02:20:52.788Z,99973.31
2023-04-20T02:23:20.566Z,100006.69
2023-04-20T02:25:48.308Z,100038.09
2023-04-20T02:28:16.111Z,100029.66
2023-04-20T02:30:44.323Z,100023.09
2023-04-20T02:33:12.923Z,100035.91
2023-04-20T02:35:40.642Z,99939.38
2023-04-20T02:38:08.615Z,99953.78
2023-04-20T02:40:39.513Z,99912.97
2023-04-20T02:43:07.362Z,99953.47
2023-04-20T02:45:35.931Z,100015.81
2023-04-20T02:48:04.101Z,99935.53
2023-04-20T02:50:35.329Z,100004.94
2023-04-20T02:53:09.877Z,99884.09
2023-04-20T02:55:38.217Z,99901.31
2023-04-20T02:58:17.839Z,99963.22
2023-04-20T03:01:05.860Z,99841.28
2023-04-20T03:03:34.623Z,100006.16
2023-04-20T03:06:02.479Z,99935.63
2023-04-20T03:08:30.405Z,99923.84
2023-04-20T03:11:03.072Z,99970.97
2023-04-20T03:13:30.907Z,99981.16
2023-04-20T03:16:02.373Z,99901.69
2023-04-20T03:18:37.545Z,99923.44
2023-04-20T03:21:05.604Z,99972.16
2023-04-20T03:23:33.632Z,99978.72
2023-04-20T03:26:03.239Z,99965.63
2023-04-20T03:28:44.182Z,99981.47
2023-04-20T03:31:15.565Z,99935.03
2023-04-20T03:33:45.916Z,99919.13
2023-04-20T03:36:13.733Z,99972.38
2023-04-20T03:38:42.376Z,99927.59
2023-04-20T03:41:11.631Z,99946.31
2023-04-20T03:43:39.751Z,99913.47
2023-04-20T03:46:07.920Z,99924.16
2023-04-20T03:48:36.302Z,99963.00
2023-04-20T03:51:04.632Z,99894.78
2023-04-20T03:53:32.463Z,99947.06
2023-04-20T03:56:02.620Z,99964.31
2023-04-20T03:58:31.249Z,99902.97
2023-04-20T04:01:19.305Z,99886.16
2023-04-20T04:03:49.480Z,99908.63
2023-04-20T04:06:18.379Z,99947.47
2023-04-20T04:08:46.242Z,99945.84
2023-04-20T04:11:14.343Z,99933.03
2023-04-20T04:13:42.265Z,99924.31
2023-04-20T04:16:11.788Z,99937.38
2023-04-20T04:18:44.046Z,99933.53
2023-04-20T04:21:13.455Z,99937.56
2023-04-20T04:23:45.266Z,99904.88
2023-04-20T04:26:48.850Z,99941.41
2023-04-20T04:29:17.759Z,99943.03
2023-04-20T04:31:45.776Z,99942.63
2023-04-20T04:34:19.073Z,99935.69
2023-04-20T04:36:50.872Z,99932.78
2023-04-20T04:39:24.152Z,99943.53
2023-04-20T04:42:04.970Z,99893.34
2023-04-20T04:44:41.853Z,99902.16
2023-04-20T04:47:14.612Z,99934.56
2023-04-20T04:49:42.733Z,99932.97
2023-04-20T04:52:11.555Z,99949.06
2023-04-20T04:54:40.692Z,99878.72
2023-04-20T04:57:08.599Z,99870.16
2023-04-20T04:59:36.278Z,99933.59
2023-04-20T05:02:05.664Z,99915.75
2023-04-20T05:04:33.732Z,99917.34
2023-04-20T05:07:01.799Z,99901.97
2023-04-20T05:09:33.693Z,99926.94
2023-04-20T05:12:01.737Z,99891.97
2023-04-20T05:14:31.423Z,99934.38
2023-04-20T05:17:03.609Z,99941.41
2023-04-20T05:19:32.352Z,99916.03
2023-04-20T05:22:01.739Z,99916.72
2023-04-20T05:24:29.614Z,99931.13
2023-04-20T05:26:57.428Z,99917.84
2023-04-20T05:29:28.701Z,99917.19
2023-04-20T05:31:59.079Z,99932.69
2023-04-20T05:34:27.146Z,99876.94
2023-04-20T05:36:55.158Z,99830.06
2023-04-20T05:39:24.623Z,99894.25
2023-04-20T05:41:52.737Z,99863.03
2023-04-20T05:44:20.845Z,99769.78
2023-04-20T05:46:48.704Z,99913.94
2023-04-20T05:49:17.031Z,99932.69
2023-04-20T05:51:45.559Z,99925.56
2023-04-20T05:54:13.550Z,99930.06
2023-04-20T05:56:41.489Z,99936.53
2023-04-20T05:59:09.571Z,99872.69
2023-04-20T06:01:37.416Z,99918.69
2023-04-20T06:04:05.552Z,99916.59
2023-04-20T06:06:33.509Z,99915.41
2023-04-20T06:09:03.912Z,99868.28
2023-04-20T06:11:31.815Z,99930.78
2023-04-20T06:14:02.736Z,99870.22
2023-04-20T06:16:30.664Z,99892.25
2023-04-20T06:18:58.778Z,99913.56
2023-04-20T06:21:27.371Z,99767.59
2023-04-20T06:23:55.685Z,99927.47
2023-04-20T06:26:28.417Z,99902.50
2023-04-20T06:28:56.905Z,99885.16
2023-04-20T06:31:24.760Z,99841.09
2023-04-20T06:33:52.582Z,99891.88
2023-04-20T06:36:20.314Z,99896.75
2023-04-20T06:38:48.188Z,99898.34
2023-04-20T06:41:16.566Z,99896.25
2023-04-20T06:43:46.161Z,99892.69
2023-04-20T06:46:14.076Z,99929.59
2023-04-20T06:48:41.900Z,99926.06
2023-04-20T06:51:09.817Z,99886.59
2023-04-20T06:53:37.512Z,99924.63
2023-04-20T06:56:05.802Z,99865.41
2023-04-20T06:58:33.557Z,99897.41
2023-04-20T07:01:02.988Z,99834.84
2023-04-20T07:03:31.489Z,99906.69
2023-04-20T07:05:59.598Z,99897.13
2023-04-20T07:08:27.476Z,99875.06
2023-04-20T07:10:55.206Z,99897.81
2023-04-20T07:13:23.303Z,99869.31
2023-04-20T07:15:51.696Z,99913.94
2023-04-20T07:18:21.018Z,99909.28
2023-04-20T07:20:48.770Z,99892.16
2023-04-20T07:23:16.597Z,99859.97
2023-04-20T07:25:45.589Z,99865.59
2023-04-20T07:28:13.665Z,99842.28
2023-04-20T07:30:41.561Z,99840.53
2023-04-20T07:33:11.473Z,99871.00
2023-04-20T07:35:39.913Z,99854.78
2023-04-20T07:38:07.730Z,99864.56
2023-04-20T07:40:35.603Z,99856.88
2023-04-20T07:43:03.301Z,99871.16
2023-04-20T07:45:31.574Z,99894.13
2023-04-20T07:48:05.701Z,99896.53
2023-04-20T07:50:33.592Z,99893.16
2023-04-20T07:53:01.240Z,99870.63
2023-04-20T07:55:33.129Z,99881.16
2023-04-20T07:58:01.076Z,99831.75
2023-04-20T08:00:29.000Z,99870.91
2023-04-20T08:02:57.386Z,99860.75
2023-04-20T08:05:27.500Z,99885.38
2023-04-20T08:07:55.435Z,99848.56
2023-04-20T08:10:23.270Z,99864.31
2023-04-20T08:12:52.704Z,99877.88
2023-04-20T08:15:21.089Z,99817.03
2023-04-20T08:17:49.094Z,99838.47
2023-04-20T08:20:16.930Z,99889.25
2023-04-20T08:22:44.707Z,99872.88
2023-04-20T08:25:12.480Z,99855.50
2023-04-20T08:27:40.231Z,99865.00
2023-04-20T08:30:09.074Z,99852.19
2023-04-20T08:32:38.115Z,99878.75
2023-04-20T08:35:06.015Z,99862.25
2023-04-20T08:37:34.395Z,99809.47
2023-04-20T08:40:02.405Z,99875.72
2023-04-20T08:42:31.818Z,99804.47
2023-04-20T08:45:00.085Z,99812.03
2023-04-20T08:47:29.213Z,99820.84
2023-04-20T08:49:58.929Z,99871.06
2023-04-20T08:52:27.230Z,99796.63
2023-04-20T08:54:57.443Z,99859.66
2023-04-20T08:57:26.493Z,99858.22
2023-04-20T08:59:54.707Z,99834.09
2023-04-20T09:02:23.015Z,99872.88
2023-04-20T09:05:02.465Z,99862.09
2023-04-20T09:10:15.183Z,99871.28
2023-04-20T09:12:43.373Z,99862.78
2023-04-20T09:15:11.508Z,99810.19
2023-04-20T09:17:41.020Z,99841.06
2023-04-20T09:20:11.557Z,99860.41
2023-04-20T09:22:41.583Z,99811.84
2023-04-20T09:25:19.445Z,99852.38
2023-04-20T09:28:02.384Z,99858.50
2023-04-20T09:30:43.479Z,99852.41
2023-04-20T09:33:13.496Z,99817.69
2023-04-20T09:35:42.748Z,99858.56
2023-04-20T09:38:17.336Z,99868.03
2023-04-20T09:40:45.342Z,99856.50
2023-04-20T09:43:25.028Z,99781.91
2023-04-20T09:45:52.852Z,99813.72
2023-04-20T09:48:21.998Z,99852.97
2023-04-20T09:50:51.427Z,99872.09
2023-04-20T09:53:20.434Z,99847.00
2023-04-20T09:55:50.495Z,99861.19
2023-04-20T09:58:20.729Z,99853.81
2023-04-20T10:00:49.410Z,99792.53
2023-04-20T10:03:22.301Z,99849.47
2023-04-20T10:05:52.348Z,99811.16
2023-04-20T10:08:22.266Z,99841.09
2023-04-20T10:10:51.658Z,99778.06
2023-04-20T10:13:22.085Z,99811.50
2023-04-20T10:15:49.922Z,99843.69
2023-04-20T10:18:23.791Z,99831.34
2023-04-20T10:21:03.731Z,99799.19
2023-04-20T10:23:34.145Z,99767.03
2023-04-20T10:26:04.123Z,99658.03
2023-04-20T10:28:40.868Z,99762.06
2023-04-20T10:31:13.476Z,99700.78
2023-04-20T10:33:58.676Z,99804.22
2023-04-20T10:36:36.999Z,99702.69
2023-04-20T10:39:19.777Z,99725.66
2023-04-20T10:42:03.961Z,99790.88
2023-04-20T10:44:33.250Z,99819.66
2023-04-20T10:47:01.518Z,99781.75
2023-04-20T10:49:31.256Z,99787.69
2023-04-20T10:51:59.105Z,99783.69
2023-04-20T10:54:27.242Z,99777.91
2023-04-20T10:56:55.027Z,99780.97
2023-04-20T10:59:24.957Z,99808.44
2023-04-20T11:01:54.159Z,99755.94
2023-04-20T11:04:32.939Z,99809.41
2023-04-20T11:07:09.582Z,99741.16
2023-04-20T11:09:40.699Z,99793.50
2023-04-20T11:12:12.041Z,99750.63
2023-04-20T11:15:00.777Z,99765.88
2023-04-20T11:17:36.085Z,99795.59
2023-04-20T11:20:14.021Z,99781.31
2023-04-20T11:22:43.200Z,99757.22
2023-04-20T11:25:13.606Z,99772.00
2023-04-20T11:27:42.400Z,99791.09
2023-04-20T11:30:10.556Z,99756.75
2023-04-20T11:32:39.263Z,99795.13
2023-04-20T11:35:11.017Z,99762.22
2023-04-20T11:37:51.684Z,99760.13
2023-04-20T11:40:20.474Z,99746.63
2023-04-20T11:42:48.195Z,99748.88
2023-04-20T11:45:16.213Z,99726.59
2023-04-20T11:47:45.824Z,99750.66
2023-04-20T11:50:15.053Z,99750.31
2023-04-20T11:52:42.872Z,99651.50
2023-04-20T11:55:11.577Z,99692.88
2023-04-20T11:57:39.529Z,99750.00
2023-04-20T12:00:08.231Z,99728.78
2023-04-20T12:02:41.996Z,99664.16
2023-04-20T12:07:38.234Z,99650.84
2023-04-20T12:10:08.087Z,99700.25
2023-04-20T12:12:37.374Z,99647.78
2023-04-20T12:15:06.048Z,99712.72
2023-04-20T12:17:33.988Z,99676.47
2023-04-20T12:20:08.966Z,99680.00
2023-04-20T12:22:36.709Z,99678.06
2023-04-20T12:25:05.516Z,99714.97
2023-04-20T12:27:33.419Z,99719.31
2023-04-20T12:30:01.371Z,99694.28
2023-04-20T12:32:30.914Z,99718.19
2023-04-20T12:34:59.351Z,99718.19
2023-04-20T12:37:27.429Z,99716.78
2023-04-20T12:39:55.112Z,99702.13
2023-04-20T12:42:22.824Z,99728.16
2023-04-20T12:44:54.391Z,99730.22
2023-04-20T12:47:22.517Z,99715.16
2023-04-20T12:49:50.558Z,99739.22
2023-04-20T12:52:18.876Z,99714.34
2023-04-20T12:54:46.640Z,99720.31
2023-04-20T12:57:14.613Z,99728.78
2023-04-20T12:59:43.093Z,99654.69
2023-04-20T13:02:11.549Z,99718.38
2023-04-20T13:04:39.436Z,99704.88
2023-04-20T13:07:07.490Z,99716.44
2023-04-20T13:09:35.349Z,99701.50
2023-04-20T13:12:03.837Z,99696.22
2023-04-20T13:14:32.434Z,99729.44
2023-04-20T13:17:02.160Z,99684.84
2023-04-20T13:19:31.126Z,99704.53
2023-04-20T13:21:59.326Z,99714.97
2023-04-20T13:24:27.221Z,99705.31
2023-04-20T13:26:56.882Z,99714.66
2023-04-20T13:29:27.797Z,99708.38
2023-04-20T13:31:55.606Z,99656.25
2023-04-20T13:34:23.450Z,99686.41
2023-04-20T13:36:51.891Z,99691.06
2023-04-20T13:39:20.910Z,99677.56
2023-04-20T13:41:52.139Z,99659.31
2023-04-20T13:44:20.280Z,99665.72
2023-04-20T13:46:48.552Z,99658.53
2023-04-20T13:49:17.118Z,99668.31
2023-04-20T13:51:44.943Z,99678.88
2023-04-20T13:54:12.616Z,99609.28
2023-04-20T13:56:40.350Z,99641.34
2023-04-20T13:59:08.119Z,99625.47
2023-04-20T14:01:36.154Z,99634.09
2023-04-20T14:04:05.015Z,99666.53
2023-04-20T14:06:32.982Z,99612.00
2023-04-20T14:09:01.637Z,99658.97
2023-04-20T14:11:29.767Z,99653.84
2023-04-20T14:13:57.713Z,99594.22
2023-04-20T14:16:25.932Z,99649.47
2023-04-20T14:18:53.885Z,99636.34
2023-04-20T14:21:22.436Z,99651.53
2023-04-20T14:23:53.763Z,99607.66
2023-04-20T14:26:21.701Z,99662.63
2023-04-20T14:28:49.507Z,99643.72
2023-04-20T14:31:17.343Z,99642.28
2023-04-20T14:33:45.109Z,99648.72
2023-04-20T14:36:13.413Z,99607.50
2023-04-20T14:38:41.210Z,99635.22
2023-04-20T14:41:08.867Z,99670.66
2023-04-20T14:43:37.501Z,99609.91
2023-04-20T14:46:06.244Z,99620.47
2023-04-20T14:48:38.229Z,99629.44
2023-04-20T14:51:06.482Z,99643.72
2023-04-20T14:53:34.217Z,99618.03
2023-04-20T14:56:02.960Z,99629.28
2023-04-20T14:58:31.793Z,99614.69
2023-04-20T15:00:59.403Z,99591.44
2023-04-20T15:03:27.626Z,99612.91
2023-04-20T15:06:01.760Z,99615.19
2023-04-20T15:08:29.471Z,99577.81
2023-04-20T15:10:57.500Z,99617.72
2023-04-20T15:13:27.204Z,99597.38
2023-04-20T15:18:24.013Z,99535.31
2023-04-20T15:20:52.841Z,99588.69
2023-04-20T15:23:20.909Z,99573.97
2023-04-20T15:25:48.727Z,99570.44
2023-04-20T15:28:16.814Z,99569.44
2023-04-20T15:30:45.430Z,99578.28
2023-04-20T15:33:13.230Z,99551.97
2023-04-20T15:35:41.441Z,99596.25
2023-04-20T15:38:09.616Z,99605.19
2023-04-20T15:40:38.893Z,99551.06
2023-04-20T15:43:06.964Z,99612.91
2023-04-20T15:45:35.063Z,99625.28
2023-04-20T15:48:03.255Z,99610.69
2023-04-20T15:50:31.354Z,99630.91
2023-04-20T15:52:59.087Z,99490.66
2023-04-20T15:55:27.386Z,99614.91
2023-04-20T15:57:58.271Z,99646.97
2023-04-20T16:00:27.338Z,99589.72
2023-04-20T16:02:55.463Z,99644.72
2023-04-20T16:05:42.201Z,99620.19
2023-04-20T16:08:28.607Z,99634.81
2023-04-20T16:11:14.815Z,99655.03
2023-04-20T16:13:42.833Z,99689.50
2023-04-20T16:16:10.746Z,99586.00
2023-04-20T16:18:38.948Z,99645.72
2023-04-20T16:21:06.830Z,99679.88
2023-04-20T16:23:34.697Z,99603.03
2023-04-20T16:26:05.454Z,99619.72
2023-04-20T16:28:33.220Z,99694.00
2023-04-20T16:31:01.206Z,99686.13
2023-04-20T16:33:30.514Z,99694.31
2023-04-20T16:35:58.417Z,99703.47
2023-04-20T16:38:26.366Z,99671.50
2023-04-20T16:40:54.374Z,99664.28
2023-04-20T16:43:22.227Z,99695.75
2023-04-20T16:45:50.155Z,99664.75
2023-04-20T16:48:18.070Z,99702.66
2023-04-20T16:50:47.131Z,99683.03
2023-04-20T16:53:15.211Z,99681.28
2023-04-20T16:55:43.280Z,99685.94
2023-04-20T16:58:11.229Z,99715.66
2023-04-20T17:00:39.167Z,99724.97
2023-04-20T17:03:10.468Z,99724.16
2023-04-20T17:05:41.672Z,99698.75
2023-04-20T17:08:09.921Z,99696.66
2023-04-20T17:10:38.618Z,99675.06
2023-04-20T17:13:06.590Z,99711.66
2023-04-20T17:15:34.481Z,99711.19
2023-04-20T17:18:02.532Z,99704.25
2023-04-20T17:20:30.547Z,99745.81
2023-04-20T17:22:58.272Z,99719.50
2023-04-20T17:25:26.346Z,99718.38
2023-04-20T17:27:54.173Z,99748.72
2023-04-20T17:30:22.961Z,99741.34
2023-04-20T17:32:50.924Z,99715.31
2023-04-20T17:35:18.868Z,99689.03
2023-04-20T17:37:46.599Z,99744.38
2023-04-20T17:40:14.510Z,99751.44
2023-04-20T17:42:42.248Z,99686.78
2023-04-20T17:45:10.473Z,99671.22
2023-04-20T17:47:38.660Z,99730.91
2023-04-20T17:50:07.134Z,99754.34
2023-04-20T17:52:35.958Z,99739.91
2023-04-20T17:55:06.578Z,99752.88
2023-04-20T17:57:34.815Z,99702.66
2023-04-20T18:00:03.911Z,99688.06
2023-04-20T18:02:40.630Z,99687.09
2023-04-20T18:05:08.970Z,99751.63
2023-04-20T18:07:36.806Z,99726.88
2023-04-20T18:10:05.059Z,99732.03
2023-04-20T18:12:33.784Z,99761.41
2023-04-20T18:15:07.641Z,99738.91
2023-04-20T18:17:36.804Z,99761.56
2023-04-20T18:20:09.492Z,99787.09
2023-04-20T18:22:38.628Z,99783.41
2023-04-20T18:25:06.670Z,99747.91
2023-04-20T18:27:34.896Z,99764.91
2023-04-20T18:30:02.919Z,99769.91
2023-04-20T18:32:33.361Z,99796.91
2023-04-20T18:35:01.194Z,99764.78
2023-04-20T18:37:28.930Z,99785.47
2023-04-20T18:39:58.229Z,99774.72
2023-04-20T18:42:28.297Z,99794.31
2023-04-20T18:44:56.294Z,99748.56
2023-04-20T18:47:27.378Z,99778.44
2023-04-20T18:49:55.121Z,99755.16
2023-04-20T18:52:23.485Z,99773.94
2023-04-20T18:54:52.125Z,99776.97
2023-04-20T18:57:24.461Z,99753.38
2023-04-20T18:59:53.569Z,99762.81
2023-04-20T19:02:21.997Z,99784.19
2023-04-20T19:04:51.014Z,99765.41
2023-04-20T19:07:19.278Z,99773.75
2023-04-20T19:09:48.747Z,99780.97
2023-04-20T19:12:16.612Z,99718.00
2023-04-20T19:14:45.403Z,99781.63
2023-04-20T19:17:14.380Z,99768.94
2023-04-20T19:19:41.993Z,99798.16
2023-04-20T19:22:10.108Z,99808.41
2023-04-20T19:24:38.076Z,99754.75
2023-04-20T19:27:06.018Z,99801.34
2023-04-20T19:29:35.535Z,99779.34
2023-04-20T19:32:03.924Z,99772.09
2023-04-20T19:34:34.212Z,99780.75
2023-04-20T19:37:02.160Z,99739.78
2023-04-20T19:39:30.911Z,99756.94
2023-04-20T19:41:58.773Z,99810.63
2023-04-20T19:44:28.257Z,99814.63
2023-04-20T19:46:56.170Z,99824.75
2023-04-20T19:49:23.980Z,99789.88
2023-04-20T19:51:51.765Z,99833.91
2023-04-20T19:54:19.909Z,99734.63
2023-04-20T19:56:47.683Z,99824.13
2023-04-20T19:59:15.987Z,99825.41
2023-04-20T20:01:44.129Z,99823.31
2023-04-20T20:04:12.124Z,99817.53
2023-04-20T20:06:40.540Z,99798.84
2023-04-20T20:09:08.701Z,99749.19
2023-04-20T20:11:36.562Z,99805.59
2023-04-20T20:14:05.003Z,99757.25
2023-04-20T20:16:32.958Z,99801.25
2023-04-20T20:19:00.807Z,99804.47
2023-04-20T20:21:28.811Z,99820.38
2023-04-20T20:23:59.521Z,99790.47
2023-04-20T20:26:27.746Z,99821.19
2023-04-20T20:28:55.552Z,99777.47
2023-04-20T20:31:24.653Z,99837.75
2023-04-20T20:33:52.761Z,99807.19
2023-04-20T20:36:21.696Z,99827.66
2023-04-20T20:38:51.115Z,99840.78
2023-04-20T20:41:22.142Z,99784.84
2023-04-20T20:43:50.547Z,99774.56
2023-04-20T20:46:20.517Z,99782.59
2023-04-20T20:48:48.331Z,99838.84
2023-04-20T20:51:17.034Z,99839.69
2023-04-20T20:53:46.477Z,99818.56
2023-04-20T20:56:14.294Z,99829.47
2023-04-20T20:58:42.235Z,99808.44
2023-04-20T21:01:10.552Z,99847.81
2023-04-20T21:03:39.766Z,99849.75
2023-04-20T21:06:08.138Z,99834.44
2023-04-20T21:08:36.153Z,99852.19
2023-04-20T21:11:04.345Z,99857.13
2023-04-20T21:13:31.990Z,99776.59
2023-04-20T21:15:59.695Z,99826.59
2023-04-20T21:18:27.432Z,99836.84
2023-04-20T21:20:58.198Z,99817.59
2023-04-20T21:23:26.108Z,99853.13
2023-04-20T21:25:54.029Z,99829.63
2023-04-20T21:28:22.433Z,99821.59
2023-04-20T21:30:50.560Z,99836.56
2023-04-20T21:33:20.534Z,99851.22
2023-04-20T21:35:55.487Z,99854.75
2023-04-20T21:38:30.551Z,99860.69
2023-04-20T21:41:00.134Z,99799.59
2023-04-20T21:43:34.831Z,99859.72
2023-04-20T21:46:04.103Z,99823.38
2023-04-20T21:48:32.398Z,99856.00
2023-04-20T21:51:02.287Z,99842.94
2023-04-20T21:53:33.384Z,99853.22
2023-04-20T21:56:01.024Z,99821.06
2023-04-20T21:58:29.036Z,99808.34
2023-04-20T22:00:56.917Z,99805.50
2023-04-20T22:03:24.769Z,99819.81
2023-04-20T22:05:53.240Z,99866.44
2023-04-20T22:08:23.903Z,99867.22
2023-04-20T22:10:52.206Z,99871.41
2023-04-20T22:13:20.127Z,99866.75
2023-04-20T22:15:48.581Z,99873.31
2023-04-20T22:18:18.938Z,99874.13
2023-04-20T22:20:47.195Z,99858.03
2023-04-20T22:23:15.198Z,99831.66
2023-04-20T22:25:43.236Z,99871.22
2023-04-20T22:28:14.239Z,99870.69
2023-04-20T22:30:43.010Z,99877.59
2023-04-20T22:33:10.834Z,99858.91
2023-04-20T22:35:39.138Z,99870.53
2023-04-20T22:38:07.262Z,99829.72
2023-04-20T22:40:35.185Z,99848.66
2023-04-20T22:43:03.158Z,99776.59
2023-04-20T22:45:31.146Z,99818.09
2023-04-20T22:47:59.086Z,99865.53
2023-04-20T22:50:27.156Z,99842.22
2023-04-20T22:52:54.924Z,99851.06
2023-04-20T22:55:23.037Z,99852.03
2023-04-20T22:57:51.100Z,99854.78
2023-04-20T23:00:19.214Z,99786.03
2023-04-20T23:02:47.183Z,99853.38
2023-04-20T23:05:20.482Z,99817.69
2023-04-20T23:07:48.562Z,99839.56
2023-04-20T23:10:16.641Z,99836.81
2023-04-20T23:12:47.148Z,99819.81
2023-04-20T23:15:14.947Z,99791.03
2023-04-20T23:17:42.760Z,99809.16
2023-04-20T23:20:14.000Z,99782.66
2023-04-20T23:22:41.960Z,99782.34
2023-04-20T23:25:11.073Z,99781.56
2023-04-20T23:27:39.444Z,99767.41
2023-04-20T23:30:08.783Z,99823.16
2023-04-20T23:32:37.499Z,99817.22
2023-04-20T23:35:05.603Z,99821.09
2023-04-20T23:37:33.490Z,99797.13
2023-04-20T23:40:01.264Z,99823.84
2023-04-20T23:42:29.162Z,99812.59
2023-04-20T23:44:56.967Z,99824.31
2023-04-20T23:47:24.724Z,99794.91
2023-04-20T23:49:52.661Z,99798.59
2023-04-20T23:52:20.368Z,99811.47
2023-04-20T23:54:48.068Z,99779.03
2023-04-20T23:57:16.042Z,99820.13
2023-04-20T23:59:43.733Z,99820.66
